Time;durP1;ratioP1;P1;durP2;ratioP2;P2;SDS_P1;SDS_P2;PMS_P1;PMS_P2;Temp;Humidity;BMP_temperature;BMP_pressure;BME280_temperature;BME280_humidity;BME280_pressure;Samples;Min_cycle;Max_cycle;Signal;HPM_P1;HPM_P2
2022/06/11 00:00:59;;;;;;;4.22;2.95;;;20.50;99.90;;;;;;5052771;28;20195;-77
2022/06/11 00:03:27;;;;;;;8.55;3.33;;;20.50;99.90;;;;;;5054782;28;20186;-77
2022/06/11 00:06:01;;;;;;;3.08;2.78;;;20.50;99.90;;;;;;5053179;28;20213;-77
2022/06/11 00:08:29;;;;;;;4.20;2.70;;;20.50;99.90;;;;;;5051479;28;20195;-77
2022/06/11 00:10:58;;;;;;;4.40;2.80;;;20.50;99.90;;;;;;5053378;28;20210;-77
2022/06/11 00:13:27;;;;;;;4.78;3.25;;;20.50;99.90;;;;;;5053274;28;20205;-77
2022/06/11 00:15:56;;;;;;;5.68;3.30;;;20.50;99.90;;;;;;5051249;28;20202;-77
2022/06/11 00:18:27;;;;;;;9.13;3.15;;;20.40;99.90;;;;;;5051997;28;20210;-77
2022/06/11 00:20:55;;;;;;;7.10;3.60;;;20.40;99.90;;;;;;5050965;28;20195;-77
2022/06/11 00:23:22;;;;;;;5.07;2.83;;;20.40;99.90;;;;;;5051497;28;20249;-77
2022/06/11 00:25:50;;;;;;;4.68;3.13;;;20.40;99.90;;;;;;5052193;28;20210;-77
2022/06/11 00:28:18;;;;;;;4.43;2.90;;;20.40;99.90;;;;;;5052513;28;20591;-77
2022/06/11 00:30:45;;;;;;;5.60;3.20;;;20.40;99.90;;;;;;5052247;28;20198;-77
2022/06/11 00:33:13;;;;;;;4.72;2.78;;;20.40;99.90;;;;;;5047113;28;20195;-77
2022/06/11 00:35:42;;;;;;;6.35;3.08;;;20.40;99.90;;;;;;5049889;28;20201;-77
2022/06/11 00:38:11;;;;;;;5.93;2.65;;;20.40;99.90;;;;;;5051235;28;20194;-77
2022/06/11 00:40:42;;;;;;;4.32;2.90;;;20.40;99.90;;;;;;5044883;28;20209;-77
2022/06/11 00:43:10;;;;;;;6.05;3.00;;;20.30;99.90;;;;;;5085711;28;20211;-77
2022/06/11 00:45:46;;;;;;;5.10;2.97;;;20.30;99.90;;;;;;5047782;28;20194;-77
2022/06/11 00:48:16;;;;;;;4.90;2.78;;;20.30;99.90;;;;;;5047646;28;20596;-77
2022/06/11 00:50:50;;;;;;;5.78;2.63;;;20.30;99.90;;;;;;5048201;28;20194;-77
2022/06/11 00:53:22;;;;;;;3.53;2.70;;;20.30;99.90;;;;;;5053151;28;20182;-77
2022/06/11 00:55:51;;;;;;;5.07;2.90;;;20.30;99.90;;;;;;5043334;28;20205;-77
2022/06/11 00:58:21;;;;;;;5.10;3.03;;;20.20;99.90;;;;;;5051957;28;20190;-77
2022/06/11 01:00:52;;;;;;;6.40;3.45;;;20.20;99.90;;;;;;5044425;28;20202;-77
2022/06/11 01:03:26;;;;;;;4.50;2.97;;;20.20;99.90;;;;;;5051675;28;20218;-77
2022/06/11 01:06:10;;;;;;;4.55;3.17;;;20.20;99.90;;;;;;5051456;28;20675;-77
2022/06/11 01:08:59;;;;;;;4.78;2.80;;;20.20;99.90;;;;;;5044035;28;20198;-77
2022/06/11 01:11:39;;;;;;;3.88;2.90;;;20.20;99.90;;;;;;5043443;28;20550;-77
2022/06/11 01:14:25;;;;;;;5.40;3.15;;;20.10;99.90;;;;;;5050062;28;20217;-77
2022/06/11 01:17:04;;;;;;;5.45;2.80;;;20.20;99.90;;;;;;5052093;28;20222;-77
2022/06/11 01:20:12;;;;;;;6.53;3.28;;;20.10;99.90;;;;;;5046636;28;20566;-77
2022/06/11 01:23:29;;;;;;;5.35;2.75;;;20.10;99.90;;;;;;4983493;28;20216;-77
2022/06/11 01:26:12;;;;;;;4.10;3.10;;;20.10;99.90;;;;;;4986377;28;20575;-77
2022/06/11 01:28:54;;;;;;;5.05;3.63;;;20.10;99.90;;;;;;5040972;28;20201;-77
2022/06/11 01:31:28;;;;;;;5.85;3.15;;;20.10;99.90;;;;;;5044112;28;20194;-77
2022/06/11 01:34:04;;;;;;;3.88;3.10;;;20.10;99.90;;;;;;5052227;28;20197;-77
2022/06/11 01:36:36;;;;;;;5.72;2.78;;;20.00;99.90;;;;;;5041475;28;20217;-77
2022/06/11 01:39:08;;;;;;;6.20;3.17;;;20.00;99.90;;;;;;5051720;28;20198;-78
2022/06/11 01:41:42;;;;;;;5.45;2.90;;;20.00;99.90;;;;;;5050047;28;20201;-78
2022/06/11 01:44:21;;;;;;;6.65;3.25;;;20.00;99.90;;;;;;5053199;28;20211;-77
2022/06/11 01:46:52;;;;;;;5.95;3.65;;;20.00;99.90;;;;;;5048383;28;20218;-77
2022/06/11 01:49:42;;;;;;;4.20;2.63;;;19.90;99.90;;;;;;5051016;28;20201;-77
2022/06/11 01:52:43;;;;;;;5.50;3.10;;;19.90;99.90;;;;;;5047074;28;20190;-77
2022/06/11 01:55:18;;;;;;;5.82;2.90;;;19.90;99.90;;;;;;5046693;28;20206;-77
2022/06/11 01:57:59;;;;;;;5.13;3.08;;;19.80;99.90;;;;;;5046798;28;20222;-77
2022/06/11 02:00:32;;;;;;;5.38;3.17;;;19.80;99.90;;;;;;5063307;28;20573;-77
2022/06/11 02:03:33;;;;;;;7.38;3.47;;;19.80;99.90;;;;;;5073675;28;20209;-77
2022/06/11 02:06:23;;;;;;;4.68;3.20;;;19.80;99.90;;;;;;5044041;28;20213;-77
2022/06/11 02:09:01;;;;;;;5.07;3.20;;;19.70;99.90;;;;;;5046482;28;20213;-77
2022/06/11 02:11:35;;;;;;;4.82;3.20;;;19.70;99.90;;;;;;5046424;28;20198;-77
2022/06/11 02:14:12;;;;;;;7.57;3.47;;;19.60;99.90;;;;;;5050055;28;20194;-77
2022/06/11 02:16:42;;;;;;;4.70;3.55;;;19.70;99.90;;;;;;5050812;28;20218;-77
2022/06/11 02:19:14;;;;;;;5.90;3.38;;;19.70;99.90;;;;;;5043590;28;20203;-77
2022/06/11 02:21:49;;;;;;;7.22;3.60;;;19.60;99.90;;;;;;5043639;28;20202;-77
2022/06/11 02:24:20;;;;;;;3.30;3.00;;;19.50;99.90;;;;;;5050679;28;20698;-78
2022/06/11 02:26:50;;;;;;;4.07;3.33;;;19.50;99.90;;;;;;5067263;28;20226;-77
2022/06/11 02:29:21;;;;;;;5.57;3.42;;;19.50;99.90;;;;;;5062462;28;20206;-77
2022/06/11 02:31:52;;;;;;;7.32;3.65;;;19.40;99.90;;;;;;5047281;28;22074;-77
2022/06/11 02:34:24;;;;;;;6.63;3.35;;;19.30;99.90;;;;;;5049921;28;20201;-77
2022/06/11 02:36:58;;;;;;;5.18;3.22;;;19.30;99.90;;;;;;5048029;28;20214;-77
2022/06/11 02:39:37;;;;;;;6.40;3.65;;;19.30;99.90;;;;;;5047334;28;20205;-77
2022/06/11 02:42:08;;;;;;;10.05;3.40;;;19.30;99.90;;;;;;5047268;28;20199;-77
2022/06/11 02:44:36;;;;;;;4.32;3.75;;;19.40;99.90;;;;;;5051177;28;20218;-78
2022/06/11 02:47:04;;;;;;;5.65;3.53;;;19.30;99.90;;;;;;5079942;28;20222;-77
2022/06/11 02:49:35;;;;;;;8.27;3.65;;;19.20;99.90;;;;;;5053258;28;20559;-77
2022/06/11 02:52:06;;;;;;;5.90;3.50;;;19.20;99.90;;;;;;5054979;28;20200;-77
2022/06/11 02:54:34;;;;;;;6.50;3.90;;;19.10;99.90;;;;;;5070352;28;20197;-77
2022/06/11 02:57:04;;;;;;;7.63;3.72;;;19.00;99.90;;;;;;5051480;28;20218;-79
2022/06/11 02:59:31;;;;;;;3.72;3.10;;;19.00;99.90;;;;;;5038554;28;20657;-77
2022/06/11 03:01:59;;;;;;;5.45;3.63;;;19.00;99.90;;;;;;5035929;28;20217;-77
2022/06/11 03:04:28;;;;;;;5.38;3.60;;;19.00;99.90;;;;;;5056065;28;20205;-77
2022/06/11 03:06:57;;;;;;;5.45;3.58;;;19.00;99.90;;;;;;5053907;28;20219;-77
2022/06/11 03:09:28;;;;;;;10.30;4.20;;;19.10;99.90;;;;;;5054127;28;20205;-77
2022/06/11 03:12:04;;;;;;;6.70;4.07;;;19.00;99.90;;;;;;5043653;28;20199;-77
2022/06/11 03:14:32;;;;;;;5.43;3.22;;;18.90;99.90;;;;;;5056567;28;20540;-77
2022/06/11 03:16:59;;;;;;;6.75;3.70;;;18.80;99.90;;;;;;5050723;28;20226;-77
2022/06/11 03:19:27;;;;;;;6.45;3.95;;;18.70;99.90;;;;;;5055331;28;20217;-77
2022/06/11 03:21:57;;;;;;;6.40;3.60;;;18.60;99.90;;;;;;5051192;28;20214;-77
2022/06/11 03:24:25;;;;;;;7.47;4.03;;;18.70;99.90;;;;;;5049779;28;20214;-77
2022/06/11 03:26:54;;;;;;;7.07;4.00;;;18.70;99.90;;;;;;5041917;28;20222;-77
2022/06/11 03:29:22;;;;;;;6.65;4.03;;;18.60;99.90;;;;;;5054532;28;20205;-77
2022/06/11 03:31:50;;;;;;;7.90;4.13;;;18.60;99.90;;;;;;5050215;28;20206;-77
2022/06/11 03:34:18;;;;;;;7.43;4.40;;;18.60;99.90;;;;;;5044002;28;20202;-77
2022/06/11 03:37:24;;;;;;;6.07;4.40;;;18.60;99.90;;;;;;5048428;28;20230;-77
2022/06/11 03:39:52;;;;;;;6.47;4.15;;;18.60;99.90;;;;;;5045883;28;20208;-77
2022/06/11 03:42:19;;;;;;;6.03;4.28;;;18.60;99.90;;;;;;5070811;28;20660;-77
2022/06/11 03:44:47;;;;;;;8.05;4.50;;;18.60;99.90;;;;;;5052339;28;20217;-77
2022/06/11 03:47:14;;;;;;;7.35;4.72;;;18.50;99.90;;;;;;5053280;28;20221;-77
2022/06/11 03:49:52;;;;;;;7.45;5.03;;;18.50;99.90;;;;;;5055453;28;20186;-77
2022/06/11 03:52:19;;;;;;;7.25;5.47;;;18.40;99.90;;;;;;5049381;28;20193;-77
2022/06/11 03:54:48;;;;;;;8.05;5.35;;;18.50;99.90;;;;;;5055839;28;20687;-77
2022/06/11 03:57:16;;;;;;;5.63;4.75;;;18.50;99.90;;;;;;5055263;28;20566;-77
2022/06/11 03:59:44;;;;;;;7.63;4.68;;;18.50;99.90;;;;;;5054311;28;20195;-77
2022/06/11 04:02:11;;;;;;;6.70;4.80;;;18.50;99.90;;;;;;5057018;28;20170;-77
2022/06/11 04:04:39;;;;;;;9.80;5.00;;;18.50;99.90;;;;;;5055446;28;20218;-77
2022/06/11 04:07:12;;;;;;;6.32;4.50;;;18.50;99.90;;;;;;5055200;28;20728;-77
2022/06/11 04:09:43;;;;;;;7.97;5.40;;;18.60;99.90;;;;;;5051233;28;20202;-77
2022/06/11 04:12:15;;;;;;;6.80;4.78;;;18.50;99.90;;;;;;5054592;28;20213;-77
2022/06/11 04:14:45;;;;;;;7.20;5.05;;;18.50;99.90;;;;;;5053582;28;20194;-77
2022/06/11 04:17:17;;;;;;;8.15;5.38;;;18.50;99.90;;;;;;5050527;28;20221;-77
2022/06/11 04:19:47;;;;;;;7.28;5.72;;;18.60;99.90;;;;;;5050175;28;20571;-78
2022/06/11 04:22:15;;;;;;;9.05;5.57;;;18.60;99.90;;;;;;5051415;28;20567;-77
2022/06/11 04:24:44;;;;;;;8.60;5.93;;;18.60;99.90;;;;;;5044107;28;20568;-77
2022/06/11 04:27:15;;;;;;;10.10;5.63;;;18.50;99.90;;;;;;5049603;28;20229;-77
2022/06/11 04:29:46;;;;;;;8.25;4.90;;;18.50;99.90;;;;;;5043395;28;20199;-77
2022/06/11 04:32:16;;;;;;;7.25;4.03;;;18.60;99.90;;;;;;5045837;28;20207;-78
2022/06/11 04:34:45;;;;;;;7.90;4.35;;;18.60;99.90;;;;;;5054380;28;20245;-78
2022/06/11 04:37:14;;;;;;;6.63;4.20;;;18.60;99.90;;;;;;5052590;28;20225;-77
2022/06/11 04:39:43;;;;;;;7.50;4.22;;;18.60;99.90;;;;;;5053449;28;20552;-77
2022/06/11 04:42:13;;;;;;;7.60;3.85;;;18.70;99.90;;;;;;5052552;28;20205;-77
2022/06/11 04:44:43;;;;;;;5.90;4.22;;;18.60;99.90;;;;;;5048129;28;20223;-77
2022/06/11 04:47:13;;;;;;;8.18;4.13;;;18.80;99.90;;;;;;5043413;28;20219;-77
2022/06/11 04:49:41;;;;;;;9.93;4.43;;;18.80;99.90;;;;;;5048085;28;20201;-77
2022/06/11 04:52:08;;;;;;;6.95;4.00;;;18.80;99.90;;;;;;5049505;28;20206;-77
2022/06/11 04:54:35;;;;;;;8.77;4.47;;;18.80;99.90;;;;;;5046530;28;20210;-77
2022/06/11 04:57:13;;;;;;;5.28;3.85;;;18.80;99.90;;;;;;5038273;28;20238;-77
2022/06/11 04:59:41;;;;;;;6.95;4.38;;;18.90;99.90;;;;;;5050742;28;20198;-77
2022/06/11 05:02:10;;;;;;;6.40;4.28;;;18.90;99.90;;;;;;5048479;28;20194;-77
2022/06/11 05:04:38;;;;;;;9.30;4.13;;;18.80;99.90;;;;;;5042305;28;20207;-77
2022/06/11 05:07:10;;;;;;;7.93;4.15;;;18.90;99.90;;;;;;5047948;28;20229;-77
2022/06/11 05:09:38;;;;;;;7.07;4.20;;;19.00;99.90;;;;;;5038828;28;20195;-77
2022/06/11 05:12:08;;;;;;;9.35;4.82;;;19.10;99.90;;;;;;5048662;28;20202;-78
2022/06/11 05:14:37;;;;;;;6.18;3.88;;;19.00;99.90;;;;;;5052110;28;20194;-77
2022/06/11 05:17:16;;;;;;;8.15;4.45;;;19.00;99.90;;;;;;5045848;28;20218;-77
2022/06/11 05:19:43;;;;;;;8.02;4.10;;;19.00;99.90;;;;;;5047697;28;20206;-78
2022/06/11 05:22:19;;;;;;;8.23;4.30;;;19.20;99.90;;;;;;5041394;28;20202;-77
2022/06/11 05:24:50;;;;;;;8.23;4.28;;;19.20;99.90;;;;;;5057354;28;20702;-77
2022/06/11 05:27:22;;;;;;;5.80;3.97;;;19.20;99.90;;;;;;5043689;28;20241;-77
2022/06/11 05:29:54;;;;;;;4.95;3.72;;;19.30;99.90;;;;;;5048704;28;20207;-77
2022/06/11 05:32:48;;;;;;;8.15;4.65;;;19.30;99.90;;;;;;5046093;28;20205;-77
2022/06/11 05:35:19;;;;;;;5.18;3.67;;;19.30;99.90;;;;;;5047676;28;20199;-77
2022/06/11 05:37:48;;;;;;;6.40;3.63;;;19.40;99.90;;;;;;5049278;28;20222;-77
2022/06/11 05:40:20;;;;;;;8.75;4.03;;;19.50;99.90;;;;;;5049141;28;20198;-79
2022/06/11 05:42:48;;;;;;;9.77;4.43;;;19.40;99.90;;;;;;5044148;28;20209;-78
2022/06/11 05:45:20;;;;;;;6.97;3.90;;;19.70;99.90;;;;;;5060918;28;20213;-79
2022/06/11 05:47:55;;;;;;;8.02;4.28;;;19.70;99.90;;;;;;5049300;28;20225;-78
2022/06/11 05:50:26;;;;;;;8.35;3.67;;;19.70;99.90;;;;;;5033258;28;20571;-79
2022/06/11 05:52:56;;;;;;;9.68;4.13;;;19.90;99.90;;;;;;5082036;28;20206;-79
2022/06/11 05:55:27;;;;;;;9.38;4.20;;;19.90;99.90;;;;;;5044734;28;20199;-79
2022/06/11 05:57:58;;;;;;;5.63;3.90;;;19.60;99.90;;;;;;5060440;28;20226;-81
2022/06/11 06:00:28;;;;;;;9.10;4.50;;;19.50;99.90;;;;;;5046392;28;20191;-78
2022/06/11 06:02:56;;;;;;;8.07;3.70;;;19.30;99.90;;;;;;5047834;28;20186;-78
2022/06/11 06:05:27;;;;;;;6.25;3.80;;;19.50;99.90;;;;;;5050550;28;20213;-78
2022/06/11 06:07:55;;;;;;;7.63;3.78;;;19.50;99.90;;;;;;5050436;28;20586;-78
2022/06/11 06:10:24;;;;;;;9.23;4.07;;;19.60;99.90;;;;;;5051721;28;20715;-78
2022/06/11 06:12:51;;;;;;;6.60;3.50;;;19.70;99.90;;;;;;5052344;28;20178;-78
2022/06/11 06:15:23;;;;;;;6.22;3.92;;;19.70;99.90;;;;;;5048230;28;20554;-79
2022/06/11 06:17:53;;;;;;;6.97;4.10;;;19.60;99.90;;;;;;5050130;28;20233;-78
2022/06/11 06:20:22;;;;;;;7.30;4.05;;;19.70;99.90;;;;;;5050200;28;20202;-78
2022/06/11 06:22:51;;;;;;;6.00;4.00;;;19.70;99.90;;;;;;5052077;28;20193;-79
2022/06/11 06:25:21;;;;;;;5.90;3.85;;;19.70;99.90;;;;;;5063680;28;20223;-78
2022/06/11 06:27:48;;;;;;;8.27;4.30;;;19.60;99.90;;;;;;5044767;28;20230;-78
2022/06/11 06:30:16;;;;;;;9.85;4.40;;;19.60;99.90;;;;;;5065302;28;20213;-78
2022/06/11 06:32:43;;;;;;;7.07;4.40;;;19.50;99.90;;;;;;5050493;28;20203;-78
2022/06/11 06:35:12;;;;;;;7.25;4.18;;;19.50;99.90;;;;;;5050988;28;20193;-78
2022/06/11 06:37:40;;;;;;;6.53;4.15;;;19.60;99.90;;;;;;5050572;28;20218;-79
2022/06/11 06:40:09;;;;;;;9.57;5.30;;;19.70;99.90;;;;;;5048750;28;20213;-78
2022/06/11 06:42:46;;;;;;;7.53;4.13;;;19.70;99.90;;;;;;5044316;28;20580;-78
2022/06/11 06:45:15;;;;;;;6.57;3.80;;;19.70;99.90;;;;;;5046271;28;20222;-78
2022/06/11 06:47:43;;;;;;;10.63;4.70;;;19.80;99.90;;;;;;5050783;28;20230;-78
2022/06/11 06:50:12;;;;;;;5.25;3.65;;;19.60;99.90;;;;;;5052112;28;20198;-80
2022/06/11 06:52:40;;;;;;;8.32;4.93;;;19.50;99.90;;;;;;5049354;28;20205;-78
2022/06/11 06:55:09;;;;;;;5.68;4.70;;;19.40;99.90;;;;;;5047667;28;20210;-78
2022/06/11 06:57:36;;;;;;;7.65;4.03;;;19.40;99.90;;;;;;5041311;28;20226;-78
2022/06/11 07:00:07;;;;;;;7.43;4.20;;;19.50;99.90;;;;;;5049915;28;20198;-78
2022/06/11 07:02:34;;;;;;;5.38;3.60;;;19.70;99.90;;;;;;5057146;28;20703;-78
2022/06/11 07:05:02;;;;;;;5.72;4.30;;;19.80;99.90;;;;;;5057831;28;20211;-78
2022/06/11 07:07:31;;;;;;;4.40;3.92;;;19.60;99.90;;;;;;5045824;28;20219;-77
2022/06/11 07:10:05;;;;;;;6.00;4.30;;;19.90;99.90;;;;;;5063784;28;20202;-78
2022/06/11 07:12:32;;;;;;;4.97;3.70;;;19.70;99.90;;;;;;5049534;28;20202;-78
2022/06/11 07:15:07;;;;;;;8.63;3.92;;;19.60;99.90;;;;;;5045635;28;20190;-77
2022/06/11 07:17:42;;;;;;;6.78;3.70;;;19.80;99.90;;;;;;4992395;28;20714;-78
2022/06/11 07:20:14;;;;;;;6.55;3.97;;;19.90;99.90;;;;;;5073545;28;20201;-79
2022/06/11 07:22:56;;;;;;;5.70;3.83;;;19.90;99.90;;;;;;5063645;28;20206;-77
2022/06/11 07:25:24;;;;;;;6.13;3.80;;;20.10;99.90;;;;;;5068218;28;20205;-78
2022/06/11 07:27:58;;;;;;;7.15;3.67;;;19.90;99.90;;;;;;5068674;28;20221;-76
2022/06/11 07:30:28;;;;;;;7.95;4.10;;;19.90;99.90;;;;;;5066951;28;20190;-77
2022/06/11 07:33:01;;;;;;;8.07;3.10;;;20.00;99.90;;;;;;5066866;28;20201;-77
2022/06/11 07:35:40;;;;;;;5.38;3.60;;;20.10;99.90;;;;;;5077490;28;20198;-77
2022/06/11 07:38:12;;;;;;;6.53;3.20;;;20.30;99.90;;;;;;5075605;28;20217;-77
2022/06/11 07:40:39;;;;;;;7.60;4.00;;;20.40;99.90;;;;;;5074707;28;20193;-77
2022/06/11 07:43:07;;;;;;;4.78;3.28;;;20.40;99.90;;;;;;5077905;28;20197;-77
2022/06/11 07:45:35;;;;;;;5.15;3.13;;;20.70;99.90;;;;;;5078215;28;20210;-77
2022/06/11 07:48:03;;;;;;;5.00;3.38;;;20.40;99.90;;;;;;5093907;28;20218;-77
2022/06/11 07:50:32;;;;;;;5.35;3.72;;;20.10;99.90;;;;;;5077176;28;20201;-77
2022/06/11 07:53:01;;;;;;;3.92;2.83;;;20.30;99.90;;;;;;5073364;28;20237;-77
2022/06/11 07:55:31;;;;;;;5.57;3.20;;;20.50;99.90;;;;;;5071250;28;20200;-78
2022/06/11 07:57:58;;;;;;;4.05;2.80;;;20.50;99.90;;;;;;5079361;28;20213;-80
2022/06/11 08:00:28;;;;;;;7.20;3.75;;;20.70;99.90;;;;;;5093794;28;20547;-80
2022/06/11 08:02:56;;;;;;;5.93;3.55;;;20.60;99.90;;;;;;5078347;28;20271;-77
2022/06/11 08:05:24;;;;;;;5.82;2.78;;;20.30;99.90;;;;;;5076332;28;20210;-77
2022/06/11 08:07:53;;;;;;;5.05;3.33;;;20.50;99.90;;;;;;5073253;28;20225;-77
2022/06/11 08:10:23;;;;;;;5.97;3.63;;;20.50;99.90;;;;;;5085714;28;20205;-77
2022/06/11 08:12:52;;;;;;;8.80;4.25;;;20.40;99.90;;;;;;5077440;28;20201;-77
2022/06/11 08:15:20;;;;;;;6.28;4.10;;;20.30;99.90;;;;;;5077849;28;20557;-77
2022/06/11 08:17:47;;;;;;;6.28;3.88;;;20.40;99.90;;;;;;5095069;28;20225;-77
2022/06/11 08:20:19;;;;;;;6.82;3.88;;;20.40;99.90;;;;;;5080213;28;20201;-77
2022/06/11 08:22:46;;;;;;;3.95;3.42;;;20.40;99.90;;;;;;5095472;28;20202;-77
2022/06/11 08:25:14;;;;;;;6.22;3.47;;;20.60;99.90;;;;;;5095788;28;20205;-77
2022/06/11 08:27:41;;;;;;;6.38;3.83;;;20.80;99.90;;;;;;5094125;28;20221;-77
2022/06/11 08:30:13;;;;;;;6.78;4.43;;;20.80;99.90;;;;;;5077146;28;20202;-80
2022/06/11 08:32:40;;;;;;;7.13;4.40;;;20.90;99.90;;;;;;5076489;28;20198;-80
2022/06/11 08:35:09;;;;;;;5.00;4.05;;;20.80;99.90;;;;;;5076751;28;20214;-80
2022/06/11 08:37:37;;;;;;;5.45;3.80;;;20.70;99.90;;;;;;5093821;28;20213;-80
2022/06/11 08:40:07;;;;;;;6.18;3.90;;;20.80;99.90;;;;;;5077569;28;20969;-76
2022/06/11 08:42:38;;;;;;;4.43;4.03;;;20.70;99.90;;;;;;5093769;28;20576;-77
2022/06/11 08:45:12;;;;;;;5.03;3.80;;;20.60;99.90;;;;;;5069678;28;20205;-77
2022/06/11 08:47:46;;;;;;;4.93;3.33;;;20.60;99.90;;;;;;5077195;28;20205;-77
2022/06/11 08:50:16;;;;;;;6.85;3.88;;;20.80;99.90;;;;;;5073622;28;20194;-77
2022/06/11 08:52:44;;;;;;;6.05;4.38;;;20.80;99.90;;;;;;5092179;28;20194;-77
2022/06/11 08:55:12;;;;;;;6.05;4.78;;;20.60;99.90;;;;;;5075117;28;20198;-77
2022/06/11 08:57:47;;;;;;;5.60;4.93;;;20.50;99.90;;;;;;5074504;28;20217;-77
2022/06/11 09:00:20;;;;;;;5.25;4.28;;;20.60;99.90;;;;;;5074715;28;20194;-77
2022/06/11 09:03:11;;;;;;;5.00;4.50;;;20.80;99.90;;;;;;5068738;28;20213;-80
2022/06/11 09:06:07;;;;;;;4.65;4.25;;;20.80;99.90;;;;;;5072763;28;20197;-79
2022/06/11 09:08:48;;;;;;;4.88;3.55;;;21.00;99.90;;;;;;5074614;28;20189;-80
2022/06/11 09:11:31;;;;;;;4.40;3.20;;;21.10;99.90;;;;;;5073702;28;20208;-80
2022/06/11 09:14:28;;;;;;;5.22;3.10;;;21.10;99.90;;;;;;5065965;28;20198;-80
2022/06/11 09:17:29;;;;;;;3.30;2.95;;;21.10;99.90;;;;;;5070677;28;20213;-79
2022/06/11 09:20:10;;;;;;;4.65;2.95;;;21.20;99.90;;;;;;5062548;28;20218;-80
2022/06/11 09:23:02;;;;;;;4.78;3.03;;;21.20;99.90;;;;;;5070321;28;20197;-80
2022/06/11 09:25:39;;;;;;;4.43;3.38;;;21.30;99.90;;;;;;5043510;28;20210;-77
2022/06/11 09:28:13;;;;;;;4.45;3.08;;;21.10;99.90;;;;;;5063614;28;20217;-78
2022/06/11 09:30:53;;;;;;;4.20;3.47;;;21.10;99.90;;;;;;5067046;28;20194;-78
2022/06/11 09:33:24;;;;;;;4.18;3.40;;;21.00;99.90;;;;;;5071507;28;20198;-78
2022/06/11 09:35:59;;;;;;;4.30;3.58;;;21.20;99.90;;;;;;5074136;28;20197;-79
2022/06/11 09:38:36;;;;;;;4.57;3.33;;;21.40;99.90;;;;;;5065488;28;20682;-79
2022/06/11 09:41:18;;;;;;;4.60;4.13;;;21.50;99.90;;;;;;5070038;28;20208;-78
2022/06/11 09:43:50;;;;;;;7.30;3.88;;;21.30;99.90;;;;;;5066285;28;20209;-78
2022/06/11 09:46:24;;;;;;;5.43;4.93;;;21.30;99.90;;;;;;5082067;28;20225;-78
2022/06/11 09:49:09;;;;;;;6.00;4.38;;;21.30;99.90;;;;;;5069287;28;20205;-78
2022/06/11 09:51:44;;;;;;;5.22;4.72;;;21.30;99.90;;;;;;5064867;28;20202;-77
2022/06/11 09:54:35;;;;;;;4.40;4.00;;;21.30;99.90;;;;;;5070263;28;20198;-78
2022/06/11 09:57:19;;;;;;;5.07;4.60;;;21.40;99.90;;;;;;5067722;28;20885;-79
2022/06/11 09:59:54;;;;;;;5.18;4.35;;;21.40;99.90;;;;;;5078483;28;20691;-80
2022/06/11 10:02:30;;;;;;;5.60;3.78;;;21.40;99.90;;;;;;5064612;28;20666;-82
2022/06/11 10:05:00;;;;;;;5.28;4.80;;;21.40;99.90;;;;;;5085260;28;20201;-78
2022/06/11 10:07:33;;;;;;;7.13;4.95;;;21.30;99.90;;;;;;5069828;28;20221;-80
2022/06/11 10:10:07;;;;;;;9.00;5.38;;;21.30;99.90;;;;;;5070497;28;20571;-78
2022/06/11 10:12:41;;;;;;;6.78;4.53;;;21.30;99.90;;;;;;5061828;28;20197;-78
2022/06/11 10:15:16;;;;;;;8.35;5.47;;;21.50;99.90;;;;;;5076675;28;20200;-77
2022/06/11 10:17:52;;;;;;;7.95;6.57;;;21.60;99.90;;;;;;5076796;28;20209;-77
2022/06/11 10:20:23;;;;;;;6.10;5.35;;;21.70;99.90;;;;;;5069939;28;20206;-78
2022/06/11 10:22:58;;;;;;;8.68;6.55;;;21.60;99.90;;;;;;5059801;28;20209;-77
2022/06/11 10:25:31;;;;;;;7.80;7.10;;;21.60;99.90;;;;;;5064611;28;20198;-77
2022/06/11 10:28:05;;;;;;;6.97;5.90;;;21.50;99.90;;;;;;5087878;28;20216;-77
2022/06/11 10:30:45;;;;;;;6.00;5.00;;;21.50;99.90;;;;;;5070981;28;20198;-79
2022/06/11 10:33:19;;;;;;;8.52;5.15;;;21.30;99.90;;;;;;5071899;28;20563;-77
2022/06/11 10:35:54;;;;;;;6.90;5.78;;;21.30;99.90;;;;;;5069890;28;20349;-78
2022/06/11 10:38:34;;;;;;;10.55;9.68;;;21.40;99.90;;;;;;5076706;28;20188;-77
2022/06/11 10:41:06;;;;;;;9.13;8.32;;;21.60;99.90;;;;;;5065953;28;20209;-78
2022/06/11 10:43:41;;;;;;;9.13;8.15;;;21.80;99.90;;;;;;5074707;28;20202;-78
2022/06/11 10:46:11;;;;;;;9.63;8.90;;;21.90;99.90;;;;;;5064696;28;20210;-77
2022/06/11 10:48:40;;;;;;;10.18;9.27;;;22.00;99.90;;;;;;5063403;28;20670;-78
2022/06/11 10:51:15;;;;;;;9.93;8.90;;;22.00;99.90;;;;;;5081361;28;20206;-78
2022/06/11 10:53:59;;;;;;;10.55;9.55;;;22.20;99.90;;;;;;5073803;28;20193;-80
2022/06/11 10:56:37;;;;;;;8.30;7.55;;;22.00;99.90;;;;;;5055265;28;20224;-78
2022/06/11 10:59:14;;;;;;;9.35;8.30;;;22.00;99.90;;;;;;5071867;28;20201;-77
2022/06/11 11:01:47;;;;;;;8.70;7.85;;;22.00;99.90;;;;;;5060173;28;20563;-78
2022/06/11 11:04:30;;;;;;;7.45;6.75;;;22.20;99.90;;;;;;5072649;28;20197;-78
2022/06/11 11:07:14;;;;;;;7.53;6.47;;;22.40;99.90;;;;;;5073249;28;20232;-77
2022/06/11 11:09:43;;;;;;;7.05;6.15;;;22.40;99.90;;;;;;5068086;28;20205;-78
2022/06/11 11:12:24;;;;;;;7.05;6.45;;;22.30;99.90;;;;;;5069807;28;20194;-77
2022/06/11 11:15:02;;;;;;;7.97;7.30;;;22.20;99.90;;;;;;5069847;28;20209;-78
2022/06/11 11:17:32;;;;;;;7.85;7.05;;;22.00;99.90;;;;;;5077138;28;20217;-78
2022/06/11 11:20:32;;;;;;;7.07;6.47;;;22.00;99.90;;;;;;5073404;28;20206;-78
2022/06/11 11:23:06;;;;;;;7.85;7.05;;;22.00;99.90;;;;;;5068556;28;20214;-77
2022/06/11 11:25:43;;;;;;;8.07;7.28;;;22.10;99.90;;;;;;5067561;28;20206;-78
2022/06/11 11:28:20;;;;;;;7.13;6.53;;;22.10;99.90;;;;;;5087565;28;20225;-77
2022/06/11 11:31:07;;;;;;;6.75;6.05;;;22.00;99.90;;;;;;5068606;28;20236;-77
2022/06/11 11:33:37;;;;;;;7.63;6.05;;;22.30;99.90;;;;;;5067513;28;20201;-77
2022/06/11 11:36:20;;;;;;;6.47;5.78;;;22.60;99.90;;;;;;5075065;28;20197;-77
2022/06/11 11:39:27;;;;;;;6.72;5.93;;;23.00;99.90;;;;;;5065878;28;20196;-78
2022/06/11 11:42:13;;;;;;;6.03;5.43;;;22.90;99.90;;;;;;5015048;28;20216;-77
2022/06/11 11:44:50;;;;;;;5.90;5.30;;;22.60;99.90;;;;;;5086567;28;20198;-78
2022/06/11 11:47:22;;;;;;;6.18;5.05;;;22.50;99.90;;;;;;5074458;28;20218;-78
2022/06/11 11:50:02;;;;;;;5.80;5.20;;;22.50;99.90;;;;;;5080387;28;20205;-78
2022/06/11 11:52:56;;;;;;;6.72;5.15;;;22.40;99.90;;;;;;5069831;28;20198;-77
2022/06/11 11:55:29;;;;;;;6.43;5.00;;;22.30;99.90;;;;;;5072159;28;20216;-78
2022/06/11 11:58:02;;;;;;;5.15;4.55;;;22.40;99.90;;;;;;5068670;28;20222;-77
2022/06/11 12:00:43;;;;;;;5.30;4.80;;;22.50;99.90;;;;;;5066358;28;20201;-78
2022/06/11 12:03:21;;;;;;;5.15;4.72;;;22.50;99.90;;;;;;5072158;28;20439;-78
2022/06/11 12:05:52;;;;;;;5.47;4.97;;;22.60;99.90;;;;;;5071108;28;20198;-78
2022/06/11 12:08:23;;;;;;;6.97;4.90;;;22.60;99.90;;;;;;5089892;28;20221;-78
2022/06/11 12:10:53;;;;;;;5.25;4.75;;;22.90;99.90;;;;;;5073918;28;20197;-78
2022/06/11 12:13:43;;;;;;;5.10;4.70;;;23.10;99.90;;;;;;5072311;28;20193;-78
2022/06/11 12:16:21;;;;;;;4.50;4.10;;;23.60;99.90;;;;;;5057579;28;20233;-78
2022/06/11 12:18:51;;;;;;;5.40;4.50;;;23.70;99.90;;;;;;5060249;28;20210;-78
2022/06/11 12:21:22;;;;;;;5.22;4.50;;;23.30;99.90;;;;;;5063031;28;20204;-78
2022/06/11 12:23:53;;;;;;;5.03;4.35;;;23.30;99.90;;;;;;5076578;28;20208;-78
2022/06/11 12:26:25;;;;;;;6.43;4.50;;;23.50;99.90;;;;;;5065210;28;20222;-78
2022/06/11 12:28:59;;;;;;;7.38;4.00;;;23.40;99.90;;;;;;5073197;28;20214;-78
2022/06/11 12:31:28;;;;;;;4.85;4.18;;;23.10;99.90;;;;;;5067981;28;20208;-78
2022/06/11 12:33:57;;;;;;;5.75;3.70;;;23.10;99.90;;;;;;5085045;28;20198;-77
2022/06/11 12:36:50;;;;;;;4.13;3.72;;;23.10;99.90;;;;;;5063194;28;20690;-78
2022/06/11 12:39:26;;;;;;;4.82;3.97;;;23.20;99.20;;;;;;5064244;28;20213;-77
2022/06/11 12:42:06;;;;;;;5.20;3.80;;;23.50;99.10;;;;;;5084294;28;20201;-78
2022/06/11 12:44:44;;;;;;;5.30;3.65;;;23.90;98.40;;;;;;5081877;28;20208;-77
2022/06/11 12:47:35;;;;;;;4.50;4.00;;;23.30;98.80;;;;;;5084725;28;20218;-76
2022/06/11 12:50:13;;;;;;;5.22;3.40;;;23.60;98.60;;;;;;5082817;28;20198;-76
2022/06/11 12:52:49;;;;;;;6.22;3.40;;;24.00;98.20;;;;;;5073140;28;20194;-77
2022/06/11 12:56:04;;;;;;;3.92;3.35;;;24.20;97.00;;;;;;5069973;28;20197;-77
2022/06/11 12:58:50;;;;;;;4.60;3.10;;;24.40;96.60;;;;;;5038775;28;20675;-77
2022/06/11 13:01:25;;;;;;;3.13;2.75;;;24.30;95.70;;;;;;5055770;28;20204;-78
2022/06/11 13:04:17;;;;;;;3.42;2.65;;;24.70;95.40;;;;;;5074893;28;20214;-78
2022/06/11 13:07:03;;;;;;;3.33;2.35;;;24.50;95.20;;;;;;5088556;28;20225;-78
2022/06/11 13:09:44;;;;;;;3.03;2.42;;;24.80;93.90;;;;;;5057464;28;20221;-78
2022/06/11 13:12:22;;;;;;;2.90;2.63;;;24.90;94.10;;;;;;5075045;28;20198;-78
2022/06/11 13:15:27;;;;;;;2.42;2.03;;;24.90;94.80;;;;;;5069066;28;20273;-79
2022/06/11 13:18:10;;;;;;;3.58;2.33;;;24.80;93.60;;;;;;5074356;28;20228;-80
2022/06/11 13:20:45;;;;;;;2.78;1.95;;;24.90;94.60;;;;;;5069884;28;20201;-81